sensor_id;sensor_type;location;lat;lon;timestamp;P1;durP1;ratioP1;P2;durP2;ratioP2
68225;SDS011;55045;49.410;11.030;2024-03-25T00:02:38;15.20;;;13.98;;
68225;SDS011;55045;49.410;11.030;2024-03-25T00:05:41;15.02;;;13.93;;
68225;SDS011;55045;49.410;11.030;2024-03-25T00:08:44;15.02;;;13.90;;
68225;SDS011;55045;49.410;11.030;2024-03-25T00:11:46;15.18;;;13.82;;
68225;SDS011;55045;49.410;11.030;2024-03-25T00:14:49;15.35;;;14.07;;
68225;SDS011;55045;49.410;11.030;2024-03-25T00:17:51;15.52;;;14.30;;
68225;SDS011;55045;49.410;11.030;2024-03-25T00:20:54;14.77;;;13.77;;
68225;SDS011;55045;49.410;11.030;2024-03-25T00:23:57;14.98;;;13.82;;
68225;SDS011;55045;49.410;11.030;2024-03-25T00:26:58;14.82;;;13.63;;
68225;SDS011;55045;49.410;11.030;2024-03-25T00:30:01;14.30;;;13.10;;
68225;SDS011;55045;49.410;11.030;2024-03-25T00:33:05;15.02;;;13.80;;
68225;SDS011;55045;49.410;11.030;2024-03-25T00:36:12;15.02;;;13.82;;
68225;SDS011;55045;49.410;11.030;2024-03-25T00:39:14;15.50;;;14.20;;
68225;SDS011;55045;49.410;11.030;2024-03-25T00:42:18;14.93;;;13.73;;
68225;SDS011;55045;49.410;11.030;2024-03-25T00:45:20;14.88;;;13.70;;
68225;SDS011;55045;49.410;11.030;2024-03-25T00:48:23;15.60;;;14.20;;
68225;SDS011;55045;49.410;11.030;2024-03-25T00:51:26;14.82;;;13.70;;
68225;SDS011;55045;49.410;11.030;2024-03-25T00:54:28;14.07;;;13.07;;
68225;SDS011;55045;49.410;11.030;2024-03-25T00:57:30;14.75;;;13.38;;
68225;SDS011;55045;49.410;11.030;2024-03-25T01:00:34;14.98;;;13.40;;
68225;SDS011;55045;49.410;11.030;2024-03-25T01:03:36;15.43;;;13.90;;
68225;SDS011;55045;49.410;11.030;2024-03-25T01:06:40;14.60;;;13.50;;
68225;SDS011;55045;49.410;11.030;2024-03-25T01:09:42;15.30;;;14.00;;
68225;SDS011;55045;49.410;11.030;2024-03-25T01:12:46;14.77;;;13.68;;
68225;SDS011;55045;49.410;11.030;2024-03-25T01:15:49;13.85;;;12.95;;
68225;SDS011;55045;49.410;11.030;2024-03-25T01:18:50;14.45;;;13.15;;
68225;SDS011;55045;49.410;11.030;2024-03-25T01:21:54;15.07;;;13.77;;
68225;SDS011;55045;49.410;11.030;2024-03-25T01:24:56;14.32;;;13.18;;
68225;SDS011;55045;49.410;11.030;2024-03-25T01:27:59;14.23;;;13.20;;
68225;SDS011;55045;49.410;11.030;2024-03-25T01:31:00;14.48;;;13.35;;
68225;SDS011;55045;49.410;11.030;2024-03-25T01:34:03;13.40;;;12.07;;
68225;SDS011;55045;49.410;11.030;2024-03-25T01:37:06;13.57;;;12.18;;
68225;SDS011;55045;49.410;11.030;2024-03-25T01:40:09;13.00;;;12.00;;
68225;SDS011;55045;49.410;11.030;2024-03-25T01:43:11;13.80;;;12.70;;
68225;SDS011;55045;49.410;11.030;2024-03-25T01:46:14;13.43;;;12.32;;
68225;SDS011;55045;49.410;11.030;2024-03-25T01:49:19;13.52;;;12.48;;
68225;SDS011;55045;49.410;11.030;2024-03-25T01:52:23;15.00;;;13.77;;
68225;SDS011;55045;49.410;11.030;2024-03-25T01:55:27;14.48;;;13.20;;
68225;SDS011;55045;49.410;11.030;2024-03-25T01:58:33;14.23;;;13.10;;
68225;SDS011;55045;49.410;11.030;2024-03-25T02:01:36;13.90;;;12.60;;
68225;SDS011;55045;49.410;11.030;2024-03-25T02:04:39;14.02;;;12.93;;
68225;SDS011;55045;49.410;11.030;2024-03-25T02:07:44;14.38;;;13.13;;
68225;SDS011;55045;49.410;11.030;2024-03-25T02:10:46;13.90;;;12.88;;
68225;SDS011;55045;49.410;11.030;2024-03-25T02:13:49;13.77;;;12.57;;
68225;SDS011;55045;49.410;11.030;2024-03-25T02:16:51;13.73;;;12.63;;
68225;SDS011;55045;49.410;11.030;2024-03-25T02:19:54;13.75;;;12.40;;
68225;SDS011;55045;49.410;11.030;2024-03-25T02:22:57;13.32;;;12.23;;
68225;SDS011;55045;49.410;11.030;2024-03-25T02:26:02;13.48;;;12.48;;
68225;SDS011;55045;49.410;11.030;2024-03-25T02:29:04;12.95;;;12.05;;
68225;SDS011;55045;49.410;11.030;2024-03-25T02:32:06;13.15;;;12.15;;
68225;SDS011;55045;49.410;11.030;2024-03-25T02:35:12;13.68;;;12.63;;
68225;SDS011;55045;49.410;11.030;2024-03-25T02:38:18;13.80;;;12.70;;
68225;SDS011;55045;49.410;11.030;2024-03-25T02:41:22;13.60;;;12.50;;
68225;SDS011;55045;49.410;11.030;2024-03-25T02:44:25;14.07;;;12.68;;
68225;SDS011;55045;49.410;11.030;2024-03-25T02:47:28;13.55;;;12.45;;
68225;SDS011;55045;49.410;11.030;2024-03-25T02:50:30;13.80;;;12.70;;
68225;SDS011;55045;49.410;11.030;2024-03-25T02:53:34;14.13;;;12.95;;
68225;SDS011;55045;49.410;11.030;2024-03-25T02:56:37;15.10;;;14.00;;
68225;SDS011;55045;49.410;11.030;2024-03-25T02:59:39;15.00;;;13.60;;
68225;SDS011;55045;49.410;11.030;2024-03-25T03:02:42;16.08;;;14.80;;
68225;SDS011;55045;49.410;11.030;2024-03-25T03:05:44;15.60;;;14.43;;
68225;SDS011;55045;49.410;11.030;2024-03-25T03:08:46;16.50;;;15.07;;
68225;SDS011;55045;49.410;11.030;2024-03-25T03:11:50;15.43;;;14.18;;
68225;SDS011;55045;49.410;11.030;2024-03-25T03:14:52;16.58;;;15.13;;
68225;SDS011;55045;49.410;11.030;2024-03-25T03:17:54;16.90;;;15.50;;
68225;SDS011;55045;49.410;11.030;2024-03-25T03:20:57;16.98;;;15.60;;
68225;SDS011;55045;49.410;11.030;2024-03-25T03:23:58;17.42;;;16.10;;
68225;SDS011;55045;49.410;11.030;2024-03-25T03:27:03;18.00;;;16.25;;
68225;SDS011;55045;49.410;11.030;2024-03-25T03:30:05;18.02;;;16.45;;
68225;SDS011;55045;49.410;11.030;2024-03-25T03:33:08;17.88;;;16.38;;
68225;SDS011;55045;49.410;11.030;2024-03-25T03:36:10;18.20;;;16.52;;
68225;SDS011;55045;49.410;11.030;2024-03-25T03:39:13;18.17;;;16.77;;
68225;SDS011;55045;49.410;11.030;2024-03-25T03:42:16;18.80;;;17.23;;
68225;SDS011;55045;49.410;11.030;2024-03-25T03:45:19;18.92;;;17.23;;
68225;SDS011;55045;49.410;11.030;2024-03-25T03:48:21;18.90;;;17.38;;
68225;SDS011;55045;49.410;11.030;2024-03-25T03:51:23;18.45;;;16.98;;
68225;SDS011;55045;49.410;11.030;2024-03-25T03:54:26;18.35;;;16.73;;
68225;SDS011;55045;49.410;11.030;2024-03-25T03:57:29;18.95;;;17.35;;
68225;SDS011;55045;49.410;11.030;2024-03-25T04:00:34;19.60;;;17.77;;
68225;SDS011;55045;49.410;11.030;2024-03-25T04:03:36;19.50;;;17.80;;
68225;SDS011;55045;49.410;11.030;2024-03-25T04:06:39;19.08;;;17.38;;
68225;SDS011;55045;49.410;11.030;2024-03-25T04:09:41;19.15;;;17.58;;
68225;SDS011;55045;49.410;11.030;2024-03-25T04:12:45;20.15;;;18.33;;
68225;SDS011;55045;49.410;11.030;2024-03-25T04:15:48;19.75;;;17.80;;
68225;SDS011;55045;49.410;11.030;2024-03-25T04:18:50;18.65;;;17.15;;
68225;SDS011;55045;49.410;11.030;2024-03-25T04:21:52;18.40;;;16.67;;
68225;SDS011;55045;49.410;11.030;2024-03-25T04:24:55;19.05;;;17.42;;
68225;SDS011;55045;49.410;11.030;2024-03-25T04:27:59;19.00;;;17.38;;
68225;SDS011;55045;49.410;11.030;2024-03-25T04:34:14;19.17;;;17.52;;
68225;SDS011;55045;49.410;11.030;2024-03-25T04:37:17;18.55;;;17.10;;
68225;SDS011;55045;49.410;11.030;2024-03-25T04:40:19;19.92;;;18.08;;
68225;SDS011;55045;49.410;11.030;2024-03-25T04:43:21;20.15;;;18.20;;
68225;SDS011;55045;49.410;11.030;2024-03-25T04:46:22;18.75;;;17.25;;
68225;SDS011;55045;49.410;11.030;2024-03-25T04:49:26;19.35;;;17.75;;
68225;SDS011;55045;49.410;11.030;2024-03-25T04:52:27;18.73;;;16.95;;
68225;SDS011;55045;49.410;11.030;2024-03-25T04:55:29;19.67;;;17.85;;
68225;SDS011;55045;49.410;11.030;2024-03-25T04:58:31;18.38;;;16.60;;
68225;SDS011;55045;49.410;11.030;2024-03-25T05:01:32;18.48;;;16.83;;
68225;SDS011;55045;49.410;11.030;2024-03-25T05:04:35;19.42;;;17.42;;
68225;SDS011;55045;49.410;11.030;2024-03-25T05:07:37;18.05;;;16.33;;
68225;SDS011;55045;49.410;11.030;2024-03-25T05:10:39;17.73;;;16.17;;
68225;SDS011;55045;49.410;11.030;2024-03-25T05:13:41;18.55;;;16.73;;
68225;SDS011;55045;49.410;11.030;2024-03-25T05:16:43;18.42;;;16.65;;
68225;SDS011;55045;49.410;11.030;2024-03-25T05:19:46;19.92;;;17.60;;
68225;SDS011;55045;49.410;11.030;2024-03-25T05:22:47;19.20;;;17.38;;
68225;SDS011;55045;49.410;11.030;2024-03-25T05:25:49;19.65;;;17.85;;
68225;SDS011;55045;49.410;11.030;2024-03-25T05:28:54;18.70;;;17.20;;
68225;SDS011;55045;49.410;11.030;2024-03-25T05:31:57;19.13;;;17.63;;
68225;SDS011;55045;49.410;11.030;2024-03-25T05:35:01;20.48;;;18.50;;
68225;SDS011;55045;49.410;11.030;2024-03-25T05:38:03;20.40;;;18.60;;
68225;SDS011;55045;49.410;11.030;2024-03-25T05:41:04;20.05;;;18.10;;
68225;SDS011;55045;49.410;11.030;2024-03-25T05:44:06;19.63;;;17.83;;
68225;SDS011;55045;49.410;11.030;2024-03-25T05:47:08;20.20;;;18.40;;
68225;SDS011;55045;49.410;11.030;2024-03-25T05:50:12;20.65;;;18.67;;
68225;SDS011;55045;49.410;11.030;2024-03-25T05:53:14;19.77;;;18.10;;
68225;SDS011;55045;49.410;11.030;2024-03-25T05:56:16;19.98;;;18.02;;
68225;SDS011;55045;49.410;11.030;2024-03-25T05:59:18;19.60;;;17.75;;
68225;SDS011;55045;49.410;11.030;2024-03-25T06:02:20;20.23;;;18.42;;
68225;SDS011;55045;49.410;11.030;2024-03-25T06:05:23;19.05;;;17.33;;
68225;SDS011;55045;49.410;11.030;2024-03-25T06:08:25;19.65;;;17.80;;
68225;SDS011;55045;49.410;11.030;2024-03-25T06:11:26;18.38;;;16.55;;
68225;SDS011;55045;49.410;11.030;2024-03-25T06:14:28;17.20;;;15.88;;
68225;SDS011;55045;49.410;11.030;2024-03-25T06:17:30;17.45;;;15.70;;
68225;SDS011;55045;49.410;11.030;2024-03-25T06:20:33;16.98;;;15.25;;
68225;SDS011;55045;49.410;11.030;2024-03-25T06:23:35;19.02;;;15.50;;
68225;SDS011;55045;49.410;11.030;2024-03-25T06:26:37;15.27;;;13.93;;
68225;SDS011;55045;49.410;11.030;2024-03-25T06:29:39;14.52;;;13.23;;
68225;SDS011;55045;49.410;11.030;2024-03-25T06:32:42;14.25;;;13.00;;
68225;SDS011;55045;49.410;11.030;2024-03-25T06:36:04;13.73;;;12.57;;
68225;SDS011;55045;49.410;11.030;2024-03-25T06:39:06;13.70;;;12.48;;
68225;SDS011;55045;49.410;11.030;2024-03-25T06:42:08;14.10;;;12.70;;
68225;SDS011;55045;49.410;11.030;2024-03-25T06:45:10;12.82;;;11.57;;
68225;SDS011;55045;49.410;11.030;2024-03-25T06:48:11;12.32;;;11.10;;
68225;SDS011;55045;49.410;11.030;2024-03-25T06:51:15;11.07;;;10.05;;
68225;SDS011;55045;49.410;11.030;2024-03-25T06:54:17;12.00;;;9.88;;
68225;SDS011;55045;49.410;11.030;2024-03-25T06:57:19;11.50;;;10.25;;
68225;SDS011;55045;49.410;11.030;2024-03-25T07:00:21;12.52;;;9.55;;
68225;SDS011;55045;49.410;11.030;2024-03-25T07:03:23;24.65;;;8.95;;
68225;SDS011;55045;49.410;11.030;2024-03-25T07:06:26;8.77;;;7.88;;
68225;SDS011;55045;49.410;11.030;2024-03-25T07:09:28;9.00;;;8.00;;
68225;SDS011;55045;49.410;11.030;2024-03-25T07:12:31;11.10;;;7.70;;
68225;SDS011;55045;49.410;11.030;2024-03-25T07:15:33;8.10;;;6.57;;
68225;SDS011;55045;49.410;11.030;2024-03-25T07:18:35;7.18;;;6.47;;
68225;SDS011;55045;49.410;11.030;2024-03-25T07:21:38;10.07;;;6.80;;
68225;SDS011;55045;49.410;11.030;2024-03-25T07:24:39;9.88;;;6.38;;
68225;SDS011;55045;49.410;11.030;2024-03-25T07:27:41;6.53;;;5.93;;
68225;SDS011;55045;49.410;11.030;2024-03-25T07:30:43;9.98;;;5.80;;
68225;SDS011;55045;49.410;11.030;2024-03-25T07:33:45;6.53;;;5.78;;
68225;SDS011;55045;49.410;11.030;2024-03-25T07:36:48;8.07;;;5.50;;
68225;SDS011;55045;49.410;11.030;2024-03-25T07:39:51;8.68;;;5.28;;
68225;SDS011;55045;49.410;11.030;2024-03-25T07:42:54;7.35;;;5.53;;
68225;SDS011;55045;49.410;11.030;2024-03-25T07:45:56;8.57;;;4.25;;
68225;SDS011;55045;49.410;11.030;2024-03-25T07:48:58;6.68;;;4.60;;
68225;SDS011;55045;49.410;11.030;2024-03-25T07:52:01;6.28;;;4.40;;
68225;SDS011;55045;49.410;11.030;2024-03-25T07:55:03;8.18;;;4.47;;
68225;SDS011;55045;49.410;11.030;2024-03-25T07:58:06;6.22;;;3.78;;
68225;SDS011;55045;49.410;11.030;2024-03-25T08:01:07;7.93;;;3.97;;
68225;SDS011;55045;49.410;11.030;2024-03-25T08:04:09;5.40;;;3.92;;
68225;SDS011;55045;49.410;11.030;2024-03-25T08:07:12;4.55;;;3.40;;
68225;SDS011;55045;49.410;11.030;2024-03-25T08:10:14;6.93;;;3.80;;
68225;SDS011;55045;49.410;11.030;2024-03-25T08:13:16;6.65;;;3.33;;
68225;SDS011;55045;49.410;11.030;2024-03-25T08:16:18;5.95;;;3.45;;
68225;SDS011;55045;49.410;11.030;2024-03-25T08:19:21;4.85;;;3.05;;
68225;SDS011;55045;49.410;11.030;2024-03-25T08:22:24;5.85;;;3.53;;
68225;SDS011;55045;49.410;11.030;2024-03-25T08:25:26;6.35;;;3.53;;
68225;SDS011;55045;49.410;11.030;2024-03-25T08:28:27;5.45;;;3.58;;
68225;SDS011;55045;49.410;11.030;2024-03-25T08:31:29;9.05;;;3.63;;
68225;SDS011;55045;49.410;11.030;2024-03-25T08:34:31;6.43;;;3.60;;
68225;SDS011;55045;49.410;11.030;2024-03-25T08:37:34;5.65;;;3.28;;
68225;SDS011;55045;49.410;11.030;2024-03-25T08:40:36;4.43;;;3.30;;
68225;SDS011;55045;49.410;11.030;2024-03-25T08:43:38;6.82;;;2.97;;
68225;SDS011;55045;49.410;11.030;2024-03-25T08:46:40;8.93;;;3.17;;
68225;SDS011;55045;49.410;11.030;2024-03-25T08:49:42;4.95;;;2.97;;
68225;SDS011;55045;49.410;11.030;2024-03-25T08:52:45;4.70;;;3.10;;
68225;SDS011;55045;49.410;11.030;2024-03-25T08:55:47;4.00;;;2.85;;
68225;SDS011;55045;49.410;11.030;2024-03-25T08:58:50;5.68;;;3.42;;
68225;SDS011;55045;49.410;11.030;2024-03-25T09:01:51;10.57;;;3.45;;
68225;SDS011;55045;49.410;11.030;2024-03-25T09:04:53;4.68;;;3.75;;
68225;SDS011;55045;49.410;11.030;2024-03-25T09:07:57;4.18;;;2.78;;
68225;SDS011;55045;49.410;11.030;2024-03-25T09:10:59;3.05;;;2.40;;
68225;SDS011;55045;49.410;11.030;2024-03-25T09:14:06;4.65;;;2.78;;
68225;SDS011;55045;49.410;11.030;2024-03-25T09:17:08;5.57;;;3.05;;
68225;SDS011;55045;49.410;11.030;2024-03-25T09:20:10;6.65;;;3.10;;
68225;SDS011;55045;49.410;11.030;2024-03-25T09:23:15;3.90;;;2.63;;
68225;SDS011;55045;49.410;11.030;2024-03-25T09:26:17;4.03;;;2.80;;
68225;SDS011;55045;49.410;11.030;2024-03-25T09:29:18;4.18;;;2.60;;
68225;SDS011;55045;49.410;11.030;2024-03-25T09:32:20;3.35;;;2.38;;
68225;SDS011;55045;49.410;11.030;2024-03-25T09:35:22;3.78;;;2.80;;
68225;SDS011;55045;49.410;11.030;2024-03-25T09:38:25;5.03;;;2.90;;
68225;SDS011;55045;49.410;11.030;2024-03-25T09:41:27;5.70;;;3.20;;
68225;SDS011;55045;49.410;11.030;2024-03-25T09:44:30;4.55;;;2.60;;
68225;SDS011;55045;49.410;11.030;2024-03-25T09:47:33;7.40;;;2.60;;
68225;SDS011;55045;49.410;11.030;2024-03-25T09:50:35;5.20;;;2.75;;
68225;SDS011;55045;49.410;11.030;2024-03-25T09:53:39;4.57;;;2.35;;
68225;SDS011;55045;49.410;11.030;2024-03-25T09:56:41;4.30;;;2.80;;
68225;SDS011;55045;49.410;11.030;2024-03-25T09:59:43;4.43;;;2.83;;
68225;SDS011;55045;49.410;11.030;2024-03-25T10:02:45;6.13;;;2.90;;
68225;SDS011;55045;49.410;11.030;2024-03-25T10:05:47;4.78;;;2.60;;
68225;SDS011;55045;49.410;11.030;2024-03-25T10:08:54;5.40;;;2.47;;
68225;SDS011;55045;49.410;11.030;2024-03-25T10:11:56;5.40;;;2.72;;
68225;SDS011;55045;49.410;11.030;2024-03-25T10:14:57;5.25;;;2.92;;
68225;SDS011;55045;49.410;11.030;2024-03-25T10:17:59;4.85;;;3.38;;
68225;SDS011;55045;49.410;11.030;2024-03-25T10:21:01;3.47;;;2.75;;
68225;SDS011;55045;49.410;11.030;2024-03-25T10:24:05;5.07;;;3.08;;
68225;SDS011;55045;49.410;11.030;2024-03-25T10:27:09;5.30;;;3.05;;
68225;SDS011;55045;49.410;11.030;2024-03-25T10:34:14;6.47;;;2.42;;
68225;SDS011;55045;49.410;11.030;2024-03-25T10:37:17;3.58;;;2.20;;
68225;SDS011;55045;49.410;11.030;2024-03-25T10:40:19;4.75;;;2.95;;
68225;SDS011;55045;49.410;11.030;2024-03-25T10:43:23;3.42;;;2.30;;
68225;SDS011;55045;49.410;11.030;2024-03-25T10:46:30;2.73;;;2.03;;
68225;SDS011;55045;49.410;11.030;2024-03-25T10:49:35;3.72;;;2.42;;
68225;SDS011;55045;49.410;11.030;2024-03-25T10:52:41;3.33;;;2.08;;
68225;SDS011;55045;49.410;11.030;2024-03-25T10:55:43;3.30;;;2.25;;
68225;SDS011;55045;49.410;11.030;2024-03-25T10:58:48;3.20;;;2.30;;
68225;SDS011;55045;49.410;11.030;2024-03-25T11:01:50;3.08;;;2.15;;
68225;SDS011;55045;49.410;11.030;2024-03-25T11:04:53;4.28;;;2.30;;
68225;SDS011;55045;49.410;11.030;2024-03-25T11:07:55;4.18;;;2.65;;
68225;SDS011;55045;49.410;11.030;2024-03-25T11:10:57;4.45;;;2.67;;
68225;SDS011;55045;49.410;11.030;2024-03-25T11:13:59;3.70;;;2.40;;
68225;SDS011;55045;49.410;11.030;2024-03-25T11:17:13;3.33;;;2.50;;
68225;SDS011;55045;49.410;11.030;2024-03-25T11:20:17;4.35;;;2.42;;
68225;SDS011;55045;49.410;11.030;2024-03-25T11:23:19;4.55;;;2.35;;
68225;SDS011;55045;49.410;11.030;2024-03-25T11:26:21;3.95;;;2.30;;
68225;SDS011;55045;49.410;11.030;2024-03-25T11:29:26;3.97;;;2.55;;
68225;SDS011;55045;49.410;11.030;2024-03-25T11:32:30;3.13;;;2.20;;
68225;SDS011;55045;49.410;11.030;2024-03-25T11:35:46;2.97;;;2.35;;
68225;SDS011;55045;49.410;11.030;2024-03-25T11:38:57;2.53;;;2.28;;
68225;SDS011;55045;49.410;11.030;2024-03-25T11:41:59;4.00;;;2.63;;
68225;SDS011;55045;49.410;11.030;2024-03-25T11:45:01;4.18;;;2.40;;
68225;SDS011;55045;49.410;11.030;2024-03-25T11:48:04;3.38;;;2.22;;
68225;SDS011;55045;49.410;11.030;2024-03-25T11:51:10;5.32;;;2.55;;
68225;SDS011;55045;49.410;11.030;2024-03-25T11:54:13;6.32;;;2.97;;
68225;SDS011;55045;49.410;11.030;2024-03-25T11:57:15;3.53;;;2.22;;
68225;SDS011;55045;49.410;11.030;2024-03-25T12:00:18;3.55;;;2.40;;
68225;SDS011;55045;49.410;11.030;2024-03-25T12:03:20;2.78;;;2.47;;
68225;SDS011;55045;49.410;11.030;2024-03-25T12:06:24;3.75;;;2.67;;
68225;SDS011;55045;49.410;11.030;2024-03-25T12:09:26;5.35;;;2.60;;
68225;SDS011;55045;49.410;11.030;2024-03-25T12:12:46;4.22;;;3.10;;
68225;SDS011;55045;49.410;11.030;2024-03-25T12:15:48;3.00;;;2.30;;
68225;SDS011;55045;49.410;11.030;2024-03-25T12:19:33;3.58;;;2.50;;
68225;SDS011;55045;49.410;11.030;2024-03-25T12:24:15;5.45;;;2.40;;
68225;SDS011;55045;49.410;11.030;2024-03-25T12:28:12;4.28;;;2.88;;
68225;SDS011;55045;49.410;11.030;2024-03-25T12:37:03;2.13;;;1.92;;
68225;SDS011;55045;49.410;11.030;2024-03-25T12:41:15;2.97;;;2.25;;
68225;SDS011;55045;49.410;11.030;2024-03-25T13:01:25;2.53;;;2.33;;
68225;SDS011;55045;49.410;11.030;2024-03-25T13:04:56;3.05;;;2.38;;
68225;SDS011;55045;49.410;11.030;2024-03-25T13:08:00;3.08;;;2.00;;
68225;SDS011;55045;49.410;11.030;2024-03-25T13:11:17;4.18;;;2.00;;
68225;SDS011;55045;49.410;11.030;2024-03-25T13:14:48;2.92;;;1.95;;
68225;SDS011;55045;49.410;11.030;2024-03-25T13:23:02;3.78;;;2.53;;
68225;SDS011;55045;49.410;11.030;2024-03-25T13:26:58;2.50;;;2.20;;
68225;SDS011;55045;49.410;11.030;2024-03-25T13:30:18;4.00;;;2.10;;
68225;SDS011;55045;49.410;11.030;2024-03-25T13:33:37;2.67;;;2.47;;
68225;SDS011;55045;49.410;11.030;2024-03-25T13:38:05;3.22;;;2.53;;
68225;SDS011;55045;49.410;11.030;2024-03-25T13:41:44;3.35;;;2.58;;
68225;SDS011;55045;49.410;11.030;2024-03-25T13:45:00;2.28;;;2.08;;
68225;SDS011;55045;49.410;11.030;2024-03-25T13:48:10;5.68;;;2.35;;
68225;SDS011;55045;49.410;11.030;2024-03-25T13:51:16;2.72;;;2.22;;
68225;SDS011;55045;49.410;11.030;2024-03-25T13:54:35;3.05;;;2.25;;
68225;SDS011;55045;49.410;11.030;2024-03-25T14:02:24;3.47;;;2.53;;
68225;SDS011;55045;49.410;11.030;2024-03-25T14:05:42;2.58;;;1.90;;
68225;SDS011;55045;49.410;11.030;2024-03-25T14:08:51;3.38;;;2.30;;
68225;SDS011;55045;49.410;11.030;2024-03-25T14:12:28;3.15;;;2.38;;
68225;SDS011;55045;49.410;11.030;2024-03-25T14:15:52;2.35;;;2.05;;
68225;SDS011;55045;49.410;11.030;2024-03-25T14:24:28;3.58;;;2.15;;
68225;SDS011;55045;49.410;11.030;2024-03-25T14:27:54;2.20;;;2.00;;
68225;SDS011;55045;49.410;11.030;2024-03-25T14:32:09;4.22;;;2.25;;
68225;SDS011;55045;49.410;11.030;2024-03-25T14:35:25;3.25;;;2.17;;
68225;SDS011;55045;49.410;11.030;2024-03-25T14:39:26;2.42;;;2.20;;
68225;SDS011;55045;49.410;11.030;2024-03-25T14:43:55;2.50;;;2.30;;
68225;SDS011;55045;49.410;11.030;2024-03-25T14:47:54;5.05;;;2.17;;
68225;SDS011;55045;49.410;11.030;2024-03-25T14:50:56;3.60;;;1.98;;
68225;SDS011;55045;49.410;11.030;2024-03-25T14:53:57;2.42;;;2.10;;
68225;SDS011;55045;49.410;11.030;2024-03-25T14:56:59;2.58;;;1.95;;
68225;SDS011;55045;49.410;11.030;2024-03-25T15:00:03;2.38;;;2.00;;
68225;SDS011;55045;49.410;11.030;2024-03-25T15:03:07;3.00;;;2.00;;
68225;SDS011;55045;49.410;11.030;2024-03-25T15:06:08;3.55;;;2.10;;
68225;SDS011;55045;49.410;11.030;2024-03-25T15:09:10;3.33;;;2.42;;
68225;SDS011;55045;49.410;11.030;2024-03-25T15:12:12;3.92;;;2.30;;
68225;SDS011;55045;49.410;11.030;2024-03-25T15:15:15;2.38;;;1.83;;
68225;SDS011;55045;49.410;11.030;2024-03-25T15:18:17;3.28;;;2.10;;
68225;SDS011;55045;49.410;11.030;2024-03-25T15:21:19;2.78;;;1.77;;
68225;SDS011;55045;49.410;11.030;2024-03-25T15:24:21;3.15;;;2.05;;
68225;SDS011;55045;49.410;11.030;2024-03-25T15:27:23;2.25;;;1.80;;
68225;SDS011;55045;49.410;11.030;2024-03-25T15:30:26;3.28;;;2.08;;
68225;SDS011;55045;49.410;11.030;2024-03-25T15:33:28;1.98;;;1.77;;
68225;SDS011;55045;49.410;11.030;2024-03-25T15:36:30;2.00;;;1.70;;
68225;SDS011;55045;49.410;11.030;2024-03-25T15:39:32;2.80;;;2.03;;
68225;SDS011;55045;49.410;11.030;2024-03-25T15:42:34;2.28;;;1.73;;
68225;SDS011;55045;49.410;11.030;2024-03-25T15:45:38;2.58;;;1.80;;
68225;SDS011;55045;49.410;11.030;2024-03-25T15:48:39;3.03;;;1.90;;
68225;SDS011;55045;49.410;11.030;2024-03-25T15:51:41;4.38;;;2.40;;
68225;SDS011;55045;49.410;11.030;2024-03-25T15:54:43;4.35;;;2.25;;
68225;SDS011;55045;49.410;11.030;2024-03-25T15:57:45;3.75;;;2.05;;
68225;SDS011;55045;49.410;11.030;2024-03-25T16:00:48;2.70;;;2.05;;
68225;SDS011;55045;49.410;11.030;2024-03-25T16:03:50;2.15;;;1.80;;
68225;SDS011;55045;49.410;11.030;2024-03-25T16:06:52;3.00;;;2.00;;
68225;SDS011;55045;49.410;11.030;2024-03-25T16:09:54;3.60;;;2.00;;
68225;SDS011;55045;49.410;11.030;2024-03-25T16:12:57;3.35;;;2.13;;
68225;SDS011;55045;49.410;11.030;2024-03-25T16:16:02;4.05;;;1.95;;
68225;SDS011;55045;49.410;11.030;2024-03-25T16:19:06;2.33;;;2.20;;
68225;SDS011;55045;49.410;11.030;2024-03-25T16:22:08;2.20;;;1.65;;
68225;SDS011;55045;49.410;11.030;2024-03-25T16:25:09;7.43;;;2.30;;
68225;SDS011;55045;49.410;11.030;2024-03-25T16:28:11;3.20;;;2.10;;
68225;SDS011;55045;49.410;11.030;2024-03-25T16:34:14;3.10;;;1.95;;
68225;SDS011;55045;49.410;11.030;2024-03-25T16:37:16;3.47;;;2.10;;
68225;SDS011;55045;49.410;11.030;2024-03-25T16:40:18;4.40;;;1.85;;
68225;SDS011;55045;49.410;11.030;2024-03-25T16:43:20;3.30;;;2.08;;
68225;SDS011;55045;49.410;11.030;2024-03-25T16:46:21;5.07;;;2.28;;
68225;SDS011;55045;49.410;11.030;2024-03-25T16:49:25;3.50;;;2.38;;
68225;SDS011;55045;49.410;11.030;2024-03-25T16:52:26;7.40;;;5.10;;
68225;SDS011;55045;49.410;11.030;2024-03-25T16:55:28;2.15;;;1.95;;
68225;SDS011;55045;49.410;11.030;2024-03-25T16:58:30;4.22;;;2.65;;
68225;SDS011;55045;49.410;11.030;2024-03-25T17:01:32;5.25;;;2.38;;
68225;SDS011;55045;49.410;11.030;2024-03-25T17:04:35;2.92;;;1.98;;
68225;SDS011;55045;49.410;11.030;2024-03-25T17:07:37;3.28;;;2.20;;
68225;SDS011;55045;49.410;11.030;2024-03-25T17:10:39;3.50;;;2.17;;
68225;SDS011;55045;49.410;11.030;2024-03-25T17:13:40;5.85;;;2.72;;
68225;SDS011;55045;49.410;11.030;2024-03-25T17:16:42;3.70;;;1.83;;
68225;SDS011;55045;49.410;11.030;2024-03-25T17:19:46;2.10;;;1.90;;
68225;SDS011;55045;49.410;11.030;2024-03-25T17:22:49;3.03;;;2.03;;
68225;SDS011;55045;49.410;11.030;2024-03-25T17:25:51;2.83;;;2.20;;
68225;SDS011;55045;49.410;11.030;2024-03-25T17:28:53;3.75;;;2.50;;
68225;SDS011;55045;49.410;11.030;2024-03-25T17:31:54;3.78;;;2.10;;
68225;SDS011;55045;49.410;11.030;2024-03-25T17:34:57;8.20;;;3.08;;
68225;SDS011;55045;49.410;11.030;2024-03-25T17:37:59;6.93;;;3.70;;
68225;SDS011;55045;49.410;11.030;2024-03-25T17:41:01;5.13;;;3.85;;
68225;SDS011;55045;49.410;11.030;2024-03-25T17:44:03;4.80;;;2.35;;
68225;SDS011;55045;49.410;11.030;2024-03-25T17:47:06;6.43;;;3.58;;
68225;SDS011;55045;49.410;11.030;2024-03-25T17:50:09;3.90;;;2.33;;
68225;SDS011;55045;49.410;11.030;2024-03-25T17:53:11;2.97;;;2.67;;
68225;SDS011;55045;49.410;11.030;2024-03-25T17:56:13;4.28;;;2.80;;
68225;SDS011;55045;49.410;11.030;2024-03-25T17:59:15;3.13;;;2.83;;
68225;SDS011;55045;49.410;11.030;2024-03-25T18:02:17;6.07;;;3.85;;
68225;SDS011;55045;49.410;11.030;2024-03-25T18:05:20;4.20;;;2.90;;
68225;SDS011;55045;49.410;11.030;2024-03-25T18:08:22;4.97;;;2.40;;
68225;SDS011;55045;49.410;11.030;2024-03-25T18:11:23;4.03;;;3.13;;
68225;SDS011;55045;49.410;11.030;2024-03-25T18:14:25;5.35;;;3.17;;
68225;SDS011;55045;49.410;11.030;2024-03-25T18:17:27;3.85;;;3.15;;
68225;SDS011;55045;49.410;11.030;2024-03-25T18:20:30;4.72;;;3.35;;
68225;SDS011;55045;49.410;11.030;2024-03-25T18:23:32;5.00;;;3.33;;
68225;SDS011;55045;49.410;11.030;2024-03-25T18:26:34;5.70;;;3.70;;
68225;SDS011;55045;49.410;11.030;2024-03-25T18:29:36;5.45;;;4.28;;
68225;SDS011;55045;49.410;11.030;2024-03-25T18:32:38;8.02;;;4.85;;
68225;SDS011;55045;49.410;11.030;2024-03-25T18:35:41;9.25;;;6.10;;
68225;SDS011;55045;49.410;11.030;2024-03-25T18:38:43;12.27;;;7.85;;
68225;SDS011;55045;49.410;11.030;2024-03-25T18:41:45;10.90;;;6.95;;
68225;SDS011;55045;49.410;11.030;2024-03-25T18:44:47;11.00;;;7.10;;
68225;SDS011;55045;49.410;11.030;2024-03-25T18:47:49;13.02;;;7.57;;
68225;SDS011;55045;49.410;11.030;2024-03-25T18:50:52;10.40;;;7.15;;
68225;SDS011;55045;49.410;11.030;2024-03-25T18:53:53;11.27;;;7.57;;
68225;SDS011;55045;49.410;11.030;2024-03-25T18:56:55;10.05;;;6.78;;